sensor_id;sensor_type;location;lat;lon;timestamp;P1;durP1;ratioP1;P2;durP2;ratioP2
74920;SDS011;63483;47.384;8.860;2024-02-15T00:02:04;1.90;;;0.60;;
74920;SDS011;63483;47.384;8.860;2024-02-15T00:04:29;3.10;;;0.80;;
74920;SDS011;63483;47.384;8.860;2024-02-15T00:06:55;2.03;;;0.73;;
74920;SDS011;63483;47.384;8.860;2024-02-15T00:09:20;2.17;;;0.80;;
74920;SDS011;63483;47.384;8.860;2024-02-15T00:11:46;2.57;;;1.23;;
74920;SDS011;63483;47.384;8.860;2024-02-15T00:14:11;2.13;;;0.98;;
74920;SDS011;63483;47.384;8.860;2024-02-15T00:16:37;2.40;;;0.83;;
74920;SDS011;63483;47.384;8.860;2024-02-15T00:19:02;2.47;;;0.70;;
74920;SDS011;63483;47.384;8.860;2024-02-15T00:21:27;2.33;;;0.70;;
74920;SDS011;63483;47.384;8.860;2024-02-15T00:23:53;2.83;;;0.93;;
74920;SDS011;63483;47.384;8.860;2024-02-15T00:26:21;2.30;;;0.90;;
74920;SDS011;63483;47.384;8.860;2024-02-15T00:28:46;1.73;;;0.90;;
74920;SDS011;63483;47.384;8.860;2024-02-15T00:31:12;2.13;;;0.53;;
74920;SDS011;63483;47.384;8.860;2024-02-15T00:33:37;1.80;;;0.70;;
74920;SDS011;63483;47.384;8.860;2024-02-15T00:36:03;1.80;;;0.60;;
74920;SDS011;63483;47.384;8.860;2024-02-15T00:38:29;2.67;;;1.05;;
74920;SDS011;63483;47.384;8.860;2024-02-15T00:40:56;2.40;;;0.90;;
74920;SDS011;63483;47.384;8.860;2024-02-15T00:43:22;3.07;;;0.70;;
74920;SDS011;63483;47.384;8.860;2024-02-15T00:45:47;3.23;;;0.60;;
74920;SDS011;63483;47.384;8.860;2024-02-15T00:48:13;2.65;;;0.68;;
74920;SDS011;63483;47.384;8.860;2024-02-15T00:50:38;2.00;;;0.73;;
74920;SDS011;63483;47.384;8.860;2024-02-15T00:53:04;2.00;;;0.87;;
74920;SDS011;63483;47.384;8.860;2024-02-15T00:55:30;1.50;;;0.88;;
74920;SDS011;63483;47.384;8.860;2024-02-15T00:57:55;1.70;;;1.10;;
74920;SDS011;63483;47.384;8.860;2024-02-15T01:00:20;2.23;;;0.80;;
74920;SDS011;63483;47.384;8.860;2024-02-15T01:02:46;1.80;;;0.70;;
74920;SDS011;63483;47.384;8.860;2024-02-15T01:05:11;1.43;;;0.50;;
74920;SDS011;63483;47.384;8.860;2024-02-15T01:07:40;1.90;;;0.70;;
74920;SDS011;63483;47.384;8.860;2024-02-15T01:10:05;1.83;;;0.67;;
74920;SDS011;63483;47.384;8.860;2024-02-15T01:12:31;3.67;;;0.93;;
74920;SDS011;63483;47.384;8.860;2024-02-15T01:14:58;3.33;;;0.70;;
74920;SDS011;63483;47.384;8.860;2024-02-15T01:17:23;2.20;;;1.07;;
74920;SDS011;63483;47.384;8.860;2024-02-15T01:19:48;1.30;;;0.50;;
74920;SDS011;63483;47.384;8.860;2024-02-15T01:22:14;1.40;;;0.57;;
74920;SDS011;63483;47.384;8.860;2024-02-15T01:24:39;1.53;;;0.70;;
74920;SDS011;63483;47.384;8.860;2024-02-15T01:27:05;1.83;;;0.50;;
74920;SDS011;63483;47.384;8.860;2024-02-15T01:29:32;1.52;;;0.70;;
74920;SDS011;63483;47.384;8.860;2024-02-15T01:31:58;4.30;;;0.77;;
74920;SDS011;63483;47.384;8.860;2024-02-15T01:34:23;3.40;;;0.70;;
74920;SDS011;63483;47.384;8.860;2024-02-15T01:36:48;3.07;;;0.90;;
74920;SDS011;63483;47.384;8.860;2024-02-15T01:39:15;2.00;;;0.73;;
74920;SDS011;63483;47.384;8.860;2024-02-15T01:41:40;1.40;;;0.50;;
74920;SDS011;63483;47.384;8.860;2024-02-15T01:44:12;2.17;;;0.57;;
74920;SDS011;63483;47.384;8.860;2024-02-15T01:46:38;2.33;;;0.65;;
74920;SDS011;63483;47.384;8.860;2024-02-15T01:49:03;1.60;;;0.70;;
74920;SDS011;63483;47.384;8.860;2024-02-15T01:51:30;2.35;;;0.50;;
74920;SDS011;63483;47.384;8.860;2024-02-15T01:53:57;2.00;;;0.60;;
74920;SDS011;63483;47.384;8.860;2024-02-15T01:56:24;1.45;;;0.50;;
74920;SDS011;63483;47.384;8.860;2024-02-15T01:58:50;1.80;;;0.53;;
74920;SDS011;63483;47.384;8.860;2024-02-15T02:01:16;2.92;;;0.70;;
74920;SDS011;63483;47.384;8.860;2024-02-15T02:03:43;1.50;;;0.50;;
74920;SDS011;63483;47.384;8.860;2024-02-15T02:06:09;1.90;;;0.75;;
74920;SDS011;63483;47.384;8.860;2024-02-15T02:08:34;2.53;;;0.50;;
74920;SDS011;63483;47.384;8.860;2024-02-15T02:10:59;1.83;;;0.60;;
74920;SDS011;63483;47.384;8.860;2024-02-15T02:13:26;1.80;;;0.60;;
74920;SDS011;63483;47.384;8.860;2024-02-15T02:15:52;2.08;;;0.70;;
74920;SDS011;63483;47.384;8.860;2024-02-15T02:18:17;1.80;;;0.40;;
74920;SDS011;63483;47.384;8.860;2024-02-15T02:20:43;1.70;;;0.70;;
74920;SDS011;63483;47.384;8.860;2024-02-15T02:23:14;1.90;;;0.47;;
74920;SDS011;63483;47.384;8.860;2024-02-15T02:25:41;1.65;;;0.82;;
74920;SDS011;63483;47.384;8.860;2024-02-15T02:28:08;1.60;;;0.40;;
74920;SDS011;63483;47.384;8.860;2024-02-15T02:30:33;2.33;;;0.68;;
74920;SDS011;63483;47.384;8.860;2024-02-15T02:32:59;1.73;;;0.63;;
74920;SDS011;63483;47.384;8.860;2024-02-15T02:35:25;1.70;;;0.70;;
74920;SDS011;63483;47.384;8.860;2024-02-15T02:37:51;3.50;;;0.50;;
74920;SDS011;63483;47.384;8.860;2024-02-15T02:40:19;2.37;;;0.50;;
74920;SDS011;63483;47.384;8.860;2024-02-15T02:42:48;3.00;;;0.68;;
74920;SDS011;63483;47.384;8.860;2024-02-15T02:45:16;5.37;;;1.57;;
74920;SDS011;63483;47.384;8.860;2024-02-15T02:47:44;3.83;;;1.05;;
74920;SDS011;63483;47.384;8.860;2024-02-15T02:50:13;3.25;;;1.35;;
74920;SDS011;63483;47.384;8.860;2024-02-15T02:52:39;2.13;;;0.83;;
74920;SDS011;63483;47.384;8.860;2024-02-15T02:55:05;3.90;;;1.30;;
74920;SDS011;63483;47.384;8.860;2024-02-15T02:57:33;3.05;;;0.82;;
74920;SDS011;63483;47.384;8.860;2024-02-15T03:00:05;3.10;;;1.17;;
74920;SDS011;63483;47.384;8.860;2024-02-15T03:02:38;4.53;;;1.67;;
74920;SDS011;63483;47.384;8.860;2024-02-15T03:05:03;6.63;;;1.42;;
74920;SDS011;63483;47.384;8.860;2024-02-15T03:07:34;3.92;;;1.60;;
74920;SDS011;63483;47.384;8.860;2024-02-15T03:10:00;2.80;;;0.75;;
74920;SDS011;63483;47.384;8.860;2024-02-15T03:12:29;4.73;;;1.27;;
74920;SDS011;63483;47.384;8.860;2024-02-15T03:14:55;4.70;;;1.00;;
74920;SDS011;63483;47.384;8.860;2024-02-15T03:17:20;3.73;;;1.13;;
74920;SDS011;63483;47.384;8.860;2024-02-15T03:19:46;3.10;;;1.00;;
74920;SDS011;63483;47.384;8.860;2024-02-15T03:22:13;4.30;;;0.95;;
74920;SDS011;63483;47.384;8.860;2024-02-15T03:24:39;1.30;;;0.43;;
74920;SDS011;63483;47.384;8.860;2024-02-15T03:27:04;2.10;;;0.60;;
74920;SDS011;63483;47.384;8.860;2024-02-15T03:29:30;2.13;;;0.80;;
74920;SDS011;63483;47.384;8.860;2024-02-15T03:31:55;2.80;;;0.57;;
74920;SDS011;63483;47.384;8.860;2024-02-15T03:34:20;3.67;;;1.10;;
74920;SDS011;63483;47.384;8.860;2024-02-15T03:36:46;4.05;;;1.38;;
74920;SDS011;63483;47.384;8.860;2024-02-15T03:39:16;4.50;;;1.50;;
74920;SDS011;63483;47.384;8.860;2024-02-15T03:41:42;5.70;;;1.85;;
74920;SDS011;63483;47.384;8.860;2024-02-15T03:44:07;3.77;;;1.30;;
74920;SDS011;63483;47.384;8.860;2024-02-15T03:46:34;4.30;;;1.38;;
74920;SDS011;63483;47.384;8.860;2024-02-15T03:48:59;3.70;;;1.30;;
74920;SDS011;63483;47.384;8.860;2024-02-15T03:51:24;3.47;;;1.30;;
74920;SDS011;63483;47.384;8.860;2024-02-15T03:53:50;1.80;;;0.60;;
74920;SDS011;63483;47.384;8.860;2024-02-15T03:56:17;2.80;;;1.00;;
74920;SDS011;63483;47.384;8.860;2024-02-15T03:58:44;1.77;;;0.70;;
74920;SDS011;63483;47.384;8.860;2024-02-15T04:01:09;5.25;;;1.90;;
74920;SDS011;63483;47.384;8.860;2024-02-15T04:03:36;5.77;;;1.43;;
74920;SDS011;63483;47.384;8.860;2024-02-15T04:06:01;2.20;;;0.85;;
74920;SDS011;63483;47.384;8.860;2024-02-15T04:08:27;4.25;;;1.00;;
74920;SDS011;63483;47.384;8.860;2024-02-15T04:10:52;3.77;;;1.17;;
74920;SDS011;63483;47.384;8.860;2024-02-15T04:13:18;3.53;;;0.90;;
74920;SDS011;63483;47.384;8.860;2024-02-15T04:15:43;2.53;;;0.57;;
74920;SDS011;63483;47.384;8.860;2024-02-15T04:18:12;2.63;;;0.77;;
74920;SDS011;63483;47.384;8.860;2024-02-15T04:20:37;1.90;;;0.60;;
74920;SDS011;63483;47.384;8.860;2024-02-15T04:23:03;2.87;;;0.90;;
74920;SDS011;63483;47.384;8.860;2024-02-15T04:25:29;3.78;;;1.15;;
74920;SDS011;63483;47.384;8.860;2024-02-15T04:27:56;4.03;;;0.88;;
74920;SDS011;63483;47.384;8.860;2024-02-15T04:30:22;6.85;;;1.90;;
74920;SDS011;63483;47.384;8.860;2024-02-15T04:32:48;3.47;;;1.60;;
74920;SDS011;63483;47.384;8.860;2024-02-15T04:35:14;3.23;;;1.10;;
74920;SDS011;63483;47.384;8.860;2024-02-15T04:37:39;1.60;;;0.70;;
74920;SDS011;63483;47.384;8.860;2024-02-15T04:40:05;2.13;;;0.50;;
74920;SDS011;63483;47.384;8.860;2024-02-15T04:42:38;1.87;;;0.50;;
74920;SDS011;63483;47.384;8.860;2024-02-15T04:45:09;1.85;;;0.52;;
74920;SDS011;63483;47.384;8.860;2024-02-15T04:47:36;2.15;;;0.63;;
74920;SDS011;63483;47.384;8.860;2024-02-15T04:50:02;2.53;;;0.80;;
74920;SDS011;63483;47.384;8.860;2024-02-15T04:52:28;6.40;;;1.00;;
74920;SDS011;63483;47.384;8.860;2024-02-15T04:54:54;2.65;;;0.90;;
74920;SDS011;63483;47.384;8.860;2024-02-15T04:57:20;2.53;;;0.90;;
74920;SDS011;63483;47.384;8.860;2024-02-15T04:59:45;5.05;;;1.55;;
74920;SDS011;63483;47.384;8.860;2024-02-15T05:02:12;5.68;;;2.10;;
74920;SDS011;63483;47.384;8.860;2024-02-15T05:04:38;3.67;;;1.10;;
74920;SDS011;63483;47.384;8.860;2024-02-15T05:07:07;2.92;;;0.88;;
74920;SDS011;63483;47.384;8.860;2024-02-15T05:09:33;3.33;;;0.60;;
74920;SDS011;63483;47.384;8.860;2024-02-15T05:11:59;1.83;;;0.70;;
74920;SDS011;63483;47.384;8.860;2024-02-15T05:14:27;1.50;;;0.50;;
74920;SDS011;63483;47.384;8.860;2024-02-15T05:16:52;1.93;;;0.57;;
74920;SDS011;63483;47.384;8.860;2024-02-15T05:19:18;1.73;;;0.77;;
74920;SDS011;63483;47.384;8.860;2024-02-15T05:21:44;3.35;;;0.70;;
74920;SDS011;63483;47.384;8.860;2024-02-15T05:24:12;1.73;;;0.70;;
74920;SDS011;63483;47.384;8.860;2024-02-15T05:26:41;2.45;;;0.50;;
74920;SDS011;63483;47.384;8.860;2024-02-15T05:29:13;2.97;;;0.67;;
74920;SDS011;63483;47.384;8.860;2024-02-15T05:31:39;2.17;;;0.93;;
74920;SDS011;63483;47.384;8.860;2024-02-15T05:34:05;1.53;;;0.60;;
74920;SDS011;63483;47.384;8.860;2024-02-15T05:36:36;4.40;;;1.13;;
74920;SDS011;63483;47.384;8.860;2024-02-15T05:39:02;2.28;;;0.60;;
74920;SDS011;63483;47.384;8.860;2024-02-15T05:41:28;2.87;;;0.50;;
74920;SDS011;63483;47.384;8.860;2024-02-15T05:43:54;3.10;;;0.47;;
74920;SDS011;63483;47.384;8.860;2024-02-15T05:46:20;1.47;;;0.47;;
74920;SDS011;63483;47.384;8.860;2024-02-15T05:48:48;3.35;;;0.52;;
74920;SDS011;63483;47.384;8.860;2024-02-15T05:51:13;2.40;;;0.70;;
74920;SDS011;63483;47.384;8.860;2024-02-15T05:53:40;1.98;;;0.70;;
74920;SDS011;63483;47.384;8.860;2024-02-15T05:56:06;3.28;;;0.65;;
74920;SDS011;63483;47.384;8.860;2024-02-15T05:58:32;2.60;;;0.68;;
74920;SDS011;63483;47.384;8.860;2024-02-15T06:00:58;1.50;;;0.43;;
74920;SDS011;63483;47.384;8.860;2024-02-15T06:03:30;1.45;;;0.63;;
74920;SDS011;63483;47.384;8.860;2024-02-15T06:05:57;2.40;;;0.83;;
74920;SDS011;63483;47.384;8.860;2024-02-15T06:08:26;1.73;;;0.70;;
74920;SDS011;63483;47.384;8.860;2024-02-15T06:10:52;2.13;;;0.68;;
74920;SDS011;63483;47.384;8.860;2024-02-15T06:13:18;2.03;;;0.60;;
74920;SDS011;63483;47.384;8.860;2024-02-15T06:15:44;3.80;;;0.80;;
74920;SDS011;63483;47.384;8.860;2024-02-15T06:18:14;1.60;;;0.60;;
74920;SDS011;63483;47.384;8.860;2024-02-15T06:20:41;1.70;;;0.70;;
74920;SDS011;63483;47.384;8.860;2024-02-15T06:23:07;1.65;;;0.57;;
74920;SDS011;63483;47.384;8.860;2024-02-15T06:25:34;1.67;;;0.60;;
74920;SDS011;63483;47.384;8.860;2024-02-15T06:28:00;2.75;;;1.20;;
74920;SDS011;63483;47.384;8.860;2024-02-15T06:30:27;2.50;;;0.80;;
74920;SDS011;63483;47.384;8.860;2024-02-15T06:33:12;1.80;;;1.00;;
74920;SDS011;63483;47.384;8.860;2024-02-15T06:36:07;2.60;;;0.80;;
74920;SDS011;63483;47.384;8.860;2024-02-15T06:38:50;2.38;;;0.60;;
74920;SDS011;63483;47.384;8.860;2024-02-15T06:41:34;1.90;;;0.75;;
74920;SDS011;63483;47.384;8.860;2024-02-15T06:43:59;3.33;;;0.97;;
74920;SDS011;63483;47.384;8.860;2024-02-15T06:46:26;2.10;;;0.83;;
74920;SDS011;63483;47.384;8.860;2024-02-15T06:48:51;2.40;;;0.95;;
74920;SDS011;63483;47.384;8.860;2024-02-15T06:51:17;2.35;;;0.95;;
74920;SDS011;63483;47.384;8.860;2024-02-15T06:53:43;3.00;;;1.08;;
74920;SDS011;63483;47.384;8.860;2024-02-15T06:56:09;2.28;;;0.98;;
74920;SDS011;63483;47.384;8.860;2024-02-15T06:58:35;1.85;;;0.85;;
74920;SDS011;63483;47.384;8.860;2024-02-15T07:01:01;1.70;;;0.70;;
74920;SDS011;63483;47.384;8.860;2024-02-15T07:03:28;1.37;;;0.60;;
74920;SDS011;63483;47.384;8.860;2024-02-15T07:05:54;2.00;;;1.00;;
74920;SDS011;63483;47.384;8.860;2024-02-15T07:08:21;1.73;;;0.80;;
74920;SDS011;63483;47.384;8.860;2024-02-15T07:10:49;2.42;;;1.10;;
74920;SDS011;63483;47.384;8.860;2024-02-15T07:13:17;1.92;;;1.05;;
74920;SDS011;63483;47.384;8.860;2024-02-15T07:15:43;1.70;;;0.60;;
74920;SDS011;63483;47.384;8.860;2024-02-15T07:18:09;1.77;;;0.77;;
74920;SDS011;63483;47.384;8.860;2024-02-15T07:20:35;1.90;;;0.85;;
74920;SDS011;63483;47.384;8.860;2024-02-15T07:23:01;2.30;;;0.60;;
74920;SDS011;63483;47.384;8.860;2024-02-15T07:25:26;10.50;;;1.30;;
74920;SDS011;63483;47.384;8.860;2024-02-15T07:27:51;5.70;;;1.00;;
74920;SDS011;63483;47.384;8.860;2024-02-15T07:30:19;2.63;;;1.00;;
74920;SDS011;63483;47.384;8.860;2024-02-15T07:32:44;2.83;;;0.80;;
74920;SDS011;63483;47.384;8.860;2024-02-15T07:35:09;2.70;;;0.90;;
74920;SDS011;63483;47.384;8.860;2024-02-15T07:37:35;3.58;;;0.70;;
74920;SDS011;63483;47.384;8.860;2024-02-15T07:40:01;1.80;;;0.67;;
74920;SDS011;63483;47.384;8.860;2024-02-15T07:42:28;2.50;;;0.70;;
74920;SDS011;63483;47.384;8.860;2024-02-15T07:44:54;4.10;;;1.00;;
74920;SDS011;63483;47.384;8.860;2024-02-15T07:47:20;5.20;;;1.10;;
74920;SDS011;63483;47.384;8.860;2024-02-15T07:49:49;2.53;;;1.00;;
74920;SDS011;63483;47.384;8.860;2024-02-15T07:52:14;3.05;;;1.23;;
74920;SDS011;63483;47.384;8.860;2024-02-15T07:54:39;1.93;;;0.80;;
74920;SDS011;63483;47.384;8.860;2024-02-15T07:57:05;2.93;;;1.20;;
74920;SDS011;63483;47.384;8.860;2024-02-15T07:59:30;1.80;;;0.87;;
74920;SDS011;63483;47.384;8.860;2024-02-15T08:01:56;2.83;;;0.97;;
74920;SDS011;63483;47.384;8.860;2024-02-15T08:04:21;2.80;;;1.30;;
74920;SDS011;63483;47.384;8.860;2024-02-15T08:06:48;2.00;;;1.23;;
74920;SDS011;63483;47.384;8.860;2024-02-15T08:09:14;2.60;;;0.90;;
74920;SDS011;63483;47.384;8.860;2024-02-15T08:11:42;1.88;;;0.70;;
74920;SDS011;63483;47.384;8.860;2024-02-15T08:14:08;1.67;;;0.70;;
74920;SDS011;63483;47.384;8.860;2024-02-15T08:16:35;2.03;;;0.68;;
74920;SDS011;63483;47.384;8.860;2024-02-15T08:19:02;2.63;;;0.80;;
74920;SDS011;63483;47.384;8.860;2024-02-15T08:21:30;3.72;;;0.93;;
74920;SDS011;63483;47.384;8.860;2024-02-15T08:24:04;1.83;;;0.70;;
74920;SDS011;63483;47.384;8.860;2024-02-15T08:26:37;3.38;;;0.80;;
74920;SDS011;63483;47.384;8.860;2024-02-15T08:29:04;2.40;;;0.70;;
74920;SDS011;63483;47.384;8.860;2024-02-15T08:31:31;2.35;;;0.65;;
74920;SDS011;63483;47.384;8.860;2024-02-15T08:33:57;2.25;;;0.50;;
74920;SDS011;63483;47.384;8.860;2024-02-15T08:36:23;3.97;;;0.77;;
74920;SDS011;63483;47.384;8.860;2024-02-15T08:38:49;2.10;;;0.80;;
74920;SDS011;63483;47.384;8.860;2024-02-15T08:41:15;6.28;;;0.90;;
74920;SDS011;63483;47.384;8.860;2024-02-15T08:43:42;2.38;;;0.80;;
74920;SDS011;63483;47.384;8.860;2024-02-15T08:46:07;2.10;;;0.80;;
74920;SDS011;63483;47.384;8.860;2024-02-15T08:48:32;2.67;;;0.60;;
74920;SDS011;63483;47.384;8.860;2024-02-15T08:50:58;2.30;;;0.77;;
74920;SDS011;63483;47.384;8.860;2024-02-15T08:53:23;2.37;;;0.90;;
74920;SDS011;63483;47.384;8.860;2024-02-15T08:55:49;2.05;;;0.85;;
74920;SDS011;63483;47.384;8.860;2024-02-15T08:58:14;2.23;;;0.50;;
74920;SDS011;63483;47.384;8.860;2024-02-15T09:00:40;4.53;;;1.07;;
74920;SDS011;63483;47.384;8.860;2024-02-15T09:03:10;1.30;;;0.70;;
74920;SDS011;63483;47.384;8.860;2024-02-15T09:05:38;1.95;;;0.80;;
74920;SDS011;63483;47.384;8.860;2024-02-15T09:08:05;1.67;;;0.75;;
74920;SDS011;63483;47.384;8.860;2024-02-15T09:10:31;1.93;;;0.77;;
74920;SDS011;63483;47.384;8.860;2024-02-15T09:12:56;2.40;;;0.70;;
74920;SDS011;63483;47.384;8.860;2024-02-15T09:15:22;1.90;;;0.60;;
74920;SDS011;63483;47.384;8.860;2024-02-15T09:17:48;2.05;;;0.85;;
74920;SDS011;63483;47.384;8.860;2024-02-15T09:20:14;2.47;;;0.77;;
74920;SDS011;63483;47.384;8.860;2024-02-15T09:25:11;3.63;;;0.55;;
74920;SDS011;63483;47.384;8.860;2024-02-15T09:27:38;1.40;;;0.57;;
74920;SDS011;63483;47.384;8.860;2024-02-15T09:30:04;2.90;;;0.85;;
74920;SDS011;63483;47.384;8.860;2024-02-15T09:32:33;3.58;;;0.75;;
74920;SDS011;63483;47.384;8.860;2024-02-15T09:34:59;1.55;;;0.52;;
74920;SDS011;63483;47.384;8.860;2024-02-15T09:37:25;2.67;;;0.93;;
74920;SDS011;63483;47.384;8.860;2024-02-15T09:39:53;2.40;;;0.65;;
74920;SDS011;63483;47.384;8.860;2024-02-15T09:42:18;1.97;;;0.40;;
74920;SDS011;63483;47.384;8.860;2024-02-15T09:44:43;2.33;;;0.40;;
74920;SDS011;63483;47.384;8.860;2024-02-15T09:47:09;1.45;;;0.60;;
74920;SDS011;63483;47.384;8.860;2024-02-15T09:49:38;2.00;;;0.47;;
74920;SDS011;63483;47.384;8.860;2024-02-15T09:52:04;1.83;;;0.30;;
74920;SDS011;63483;47.384;8.860;2024-02-15T09:54:32;3.03;;;0.90;;
74920;SDS011;63483;47.384;8.860;2024-02-15T09:56:59;2.15;;;0.70;;
74920;SDS011;63483;47.384;8.860;2024-02-15T09:59:26;2.20;;;0.73;;
74920;SDS011;63483;47.384;8.860;2024-02-15T10:01:51;6.03;;;1.60;;
74920;SDS011;63483;47.384;8.860;2024-02-15T10:04:23;4.43;;;1.73;;
74920;SDS011;63483;47.384;8.860;2024-02-15T10:06:50;1.90;;;0.87;;
74920;SDS011;63483;47.384;8.860;2024-02-15T10:11:54;4.07;;;1.55;;
74920;SDS011;63483;47.384;8.860;2024-02-15T10:14:21;2.33;;;0.87;;
74920;SDS011;63483;47.384;8.860;2024-02-15T10:16:47;1.55;;;0.75;;
74920;SDS011;63483;47.384;8.860;2024-02-15T10:19:13;2.10;;;0.90;;
74920;SDS011;63483;47.384;8.860;2024-02-15T10:21:40;1.45;;;0.70;;
74920;SDS011;63483;47.384;8.860;2024-02-15T10:24:06;2.87;;;0.80;;
74920;SDS011;63483;47.384;8.860;2024-02-15T10:26:32;2.28;;;0.90;;
74920;SDS011;63483;47.384;8.860;2024-02-15T10:31:34;2.65;;;0.52;;
74920;SDS011;63483;47.384;8.860;2024-02-15T10:34:04;2.13;;;0.98;;
74920;SDS011;63483;47.384;8.860;2024-02-15T10:36:30;3.77;;;1.10;;
74920;SDS011;63483;47.384;8.860;2024-02-15T10:39:15;2.13;;;1.20;;
74920;SDS011;63483;47.384;8.860;2024-02-15T10:41:51;2.83;;;1.00;;
74920;SDS011;63483;47.384;8.860;2024-02-15T10:44:21;5.03;;;1.55;;
74920;SDS011;63483;47.384;8.860;2024-02-15T10:46:49;2.63;;;1.17;;
74920;SDS011;63483;47.384;8.860;2024-02-15T10:49:18;2.60;;;1.00;;
74920;SDS011;63483;47.384;8.860;2024-02-15T10:51:47;2.03;;;0.85;;
74920;SDS011;63483;47.384;8.860;2024-02-15T10:54:15;2.30;;;0.60;;
74920;SDS011;63483;47.384;8.860;2024-02-15T10:56:55;1.98;;;0.70;;
74920;SDS011;63483;47.384;8.860;2024-02-15T10:59:28;1.55;;;0.75;;
74920;SDS011;63483;47.384;8.860;2024-02-15T11:01:59;2.10;;;1.10;;
74920;SDS011;63483;47.384;8.860;2024-02-15T11:04:25;1.88;;;0.95;;
74920;SDS011;63483;47.384;8.860;2024-02-15T11:06:57;1.88;;;1.10;;
74920;SDS011;63483;47.384;8.860;2024-02-15T11:09:23;2.28;;;0.70;;
74920;SDS011;63483;47.384;8.860;2024-02-15T11:11:50;4.80;;;1.33;;
74920;SDS011;63483;47.384;8.860;2024-02-15T11:14:22;2.00;;;1.05;;
74920;SDS011;63483;47.384;8.860;2024-02-15T11:16:48;2.10;;;0.85;;
74920;SDS011;63483;47.384;8.860;2024-02-15T11:19:39;2.43;;;1.00;;
74920;SDS011;63483;47.384;8.860;2024-02-15T11:22:13;2.78;;;1.20;;
74920;SDS011;63483;47.384;8.860;2024-02-15T11:24:58;3.25;;;1.50;;
74920;SDS011;63483;47.384;8.860;2024-02-15T11:27:25;2.60;;;0.97;;
74920;SDS011;63483;47.384;8.860;2024-02-15T11:29:52;2.00;;;1.13;;
74920;SDS011;63483;47.384;8.860;2024-02-15T11:35:07;3.28;;;1.20;;
74920;SDS011;63483;47.384;8.860;2024-02-15T11:37:48;2.28;;;1.10;;
74920;SDS011;63483;47.384;8.860;2024-02-15T11:42:49;2.78;;;0.93;;
74920;SDS011;63483;47.384;8.860;2024-02-15T11:45:15;4.25;;;1.33;;
74920;SDS011;63483;47.384;8.860;2024-02-15T11:47:46;3.15;;;1.20;;
74920;SDS011;63483;47.384;8.860;2024-02-15T11:50:15;3.33;;;0.93;;
74920;SDS011;63483;47.384;8.860;2024-02-15T11:52:42;1.90;;;0.90;;
74920;SDS011;63483;47.384;8.860;2024-02-15T11:55:10;3.00;;;1.40;;
74920;SDS011;63483;47.384;8.860;2024-02-15T11:57:38;5.20;;;1.70;;
74920;SDS011;63483;47.384;8.860;2024-02-15T12:00:23;2.30;;;1.05;;
74920;SDS011;63483;47.384;8.860;2024-02-15T12:03:08;5.45;;;1.65;;
74920;SDS011;63483;47.384;8.860;2024-02-15T12:05:53;2.77;;;0.93;;
74920;SDS011;63483;47.384;8.860;2024-02-15T12:08:38;2.10;;;1.05;;
74920;SDS011;63483;47.384;8.860;2024-02-15T12:11:21;5.72;;;1.50;;
74920;SDS011;63483;47.384;8.860;2024-02-15T12:14:06;2.20;;;1.00;;
74920;SDS011;63483;47.384;8.860;2024-02-15T12:17:02;2.13;;;1.13;;
74920;SDS011;63483;47.384;8.860;2024-02-15T12:19:48;2.57;;;0.90;;
74920;SDS011;63483;47.384;8.860;2024-02-15T12:22:17;3.13;;;0.77;;
74920;SDS011;63483;47.384;8.860;2024-02-15T12:24:45;3.33;;;1.42;;
74920;SDS011;63483;47.384;8.860;2024-02-15T12:27:17;2.40;;;1.08;;
74920;SDS011;63483;47.384;8.860;2024-02-15T12:29:42;2.27;;;1.33;;
74920;SDS011;63483;47.384;8.860;2024-02-15T12:32:08;2.27;;;1.37;;
74920;SDS011;63483;47.384;8.860;2024-02-15T12:34:33;3.07;;;1.20;;
74920;SDS011;63483;47.384;8.860;2024-02-15T12:37:05;2.77;;;1.27;;
74920;SDS011;63483;47.384;8.860;2024-02-15T12:39:33;2.25;;;1.48;;
74920;SDS011;63483;47.384;8.860;2024-02-15T12:41:59;2.97;;;1.33;;
74920;SDS011;63483;47.384;8.860;2024-02-15T12:44:24;2.20;;;1.20;;
74920;SDS011;63483;47.384;8.860;2024-02-15T12:46:55;2.08;;;1.30;;
74920;SDS011;63483;47.384;8.860;2024-02-15T12:51:51;2.90;;;1.50;;
74920;SDS011;63483;47.384;8.860;2024-02-15T12:54:19;2.08;;;0.98;;
74920;SDS011;63483;47.384;8.860;2024-02-15T12:56:46;2.22;;;1.10;;
74920;SDS011;63483;47.384;8.860;2024-02-15T12:59:13;4.55;;;1.60;;
74920;SDS011;63483;47.384;8.860;2024-02-15T13:01:39;2.63;;;1.23;;
74920;SDS011;63483;47.384;8.860;2024-02-15T13:04:04;3.47;;;1.10;;
74920;SDS011;63483;47.384;8.860;2024-02-15T13:06:31;2.67;;;1.75;;
74920;SDS011;63483;47.384;8.860;2024-02-15T13:08:59;2.70;;;1.15;;
74920;SDS011;63483;47.384;8.860;2024-02-15T13:11:25;2.60;;;1.60;;
74920;SDS011;63483;47.384;8.860;2024-02-15T13:13:51;2.55;;;1.20;;
74920;SDS011;63483;47.384;8.860;2024-02-15T13:16:16;2.13;;;1.27;;
74920;SDS011;63483;47.384;8.860;2024-02-15T13:18:42;3.53;;;1.33;;
74920;SDS011;63483;47.384;8.860;2024-02-15T13:21:08;2.67;;;1.02;;
74920;SDS011;63483;47.384;8.860;2024-02-15T13:23:35;2.13;;;0.98;;
74920;SDS011;63483;47.384;8.860;2024-02-15T13:26:01;2.50;;;1.23;;
74920;SDS011;63483;47.384;8.860;2024-02-15T13:28:29;2.05;;;1.08;;
74920;SDS011;63483;47.384;8.860;2024-02-15T13:30:55;2.25;;;1.20;;
74920;SDS011;63483;47.384;8.860;2024-02-15T13:33:21;2.30;;;1.10;;
74920;SDS011;63483;47.384;8.860;2024-02-15T13:35:46;3.05;;;1.23;;
74920;SDS011;63483;47.384;8.860;2024-02-15T13:38:14;2.03;;;1.10;;
74920;SDS011;63483;47.384;8.860;2024-02-15T13:40:47;2.67;;;1.13;;
74920;SDS011;63483;47.384;8.860;2024-02-15T13:43:14;2.88;;;1.15;;
74920;SDS011;63483;47.384;8.860;2024-02-15T13:45:42;4.00;;;1.52;;
74920;SDS011;63483;47.384;8.860;2024-02-15T13:48:09;2.80;;;1.17;;
74920;SDS011;63483;47.384;8.860;2024-02-15T13:50:35;2.30;;;1.07;;
74920;SDS011;63483;47.384;8.860;2024-02-15T13:53:01;2.45;;;1.58;;
74920;SDS011;63483;47.384;8.860;2024-02-15T13:55:28;2.72;;;1.30;;
74920;SDS011;63483;47.384;8.860;2024-02-15T13:57:54;2.50;;;1.50;;
74920;SDS011;63483;47.384;8.860;2024-02-15T14:00:23;2.85;;;1.35;;
74920;SDS011;63483;47.384;8.860;2024-02-15T14:02:55;3.87;;;2.00;;
74920;SDS011;63483;47.384;8.860;2024-02-15T14:05:22;3.03;;;1.60;;
74920;SDS011;63483;47.384;8.860;2024-02-15T14:07:50;2.75;;;1.65;;
74920;SDS011;63483;47.384;8.860;2024-02-15T14:10:20;3.85;;;2.00;;
74920;SDS011;63483;47.384;8.860;2024-02-15T14:12:50;3.85;;;2.10;;
74920;SDS011;63483;47.384;8.860;2024-02-15T14:15:30;4.80;;;2.57;;
74920;SDS011;63483;47.384;8.860;2024-02-15T14:18:05;4.05;;;2.17;;
74920;SDS011;63483;47.384;8.860;2024-02-15T14:20:43;4.43;;;2.33;;
74920;SDS011;63483;47.384;8.860;2024-02-15T14:23:09;3.20;;;2.10;;
74920;SDS011;63483;47.384;8.860;2024-02-15T14:25:38;3.83;;;2.27;;
74920;SDS011;63483;47.384;8.860;2024-02-15T14:28:04;3.50;;;2.08;;
74920;SDS011;63483;47.384;8.860;2024-02-15T14:30:32;4.65;;;2.17;;
74920;SDS011;63483;47.384;8.860;2024-02-15T14:33:17;3.15;;;1.95;;
74920;SDS011;63483;47.384;8.860;2024-02-15T14:35:44;4.87;;;2.50;;
74920;SDS011;63483;47.384;8.860;2024-02-15T14:38:11;3.75;;;2.60;;
74920;SDS011;63483;47.384;8.860;2024-02-15T14:43:07;4.15;;;2.55;;
74920;SDS011;63483;47.384;8.860;2024-02-15T14:45:33;3.33;;;2.30;;
74920;SDS011;63483;47.384;8.860;2024-02-15T14:47:59;3.63;;;2.15;;
74920;SDS011;63483;47.384;8.860;2024-02-15T14:50:25;3.40;;;2.03;;
74920;SDS011;63483;47.384;8.860;2024-02-15T14:52:51;3.13;;;1.97;;
74920;SDS011;63483;47.384;8.860;2024-02-15T14:55:18;4.55;;;1.90;;
74920;SDS011;63483;47.384;8.860;2024-02-15T14:57:47;3.90;;;2.10;;
74920;SDS011;63483;47.384;8.860;2024-02-15T15:00:13;3.22;;;1.85;;
74920;SDS011;63483;47.384;8.860;2024-02-15T15:02:42;3.50;;;2.33;;
74920;SDS011;63483;47.384;8.860;2024-02-15T15:05:11;3.70;;;2.33;;
74920;SDS011;63483;47.384;8.860;2024-02-15T15:07:55;4.93;;;2.92;;
74920;SDS011;63483;47.384;8.860;2024-02-15T15:10:39;4.13;;;2.83;;